createdAt,value
2023-02-11T00:00:15.134Z,103539.22
2023-02-11T00:02:41.611Z,103546.53
2023-02-11T00:05:08.459Z,103533.81
2023-02-11T00:07:35.421Z,103523.81
2023-02-11T00:10:03.346Z,103524.13
2023-02-11T00:12:30.062Z,103524.38
2023-02-11T00:14:57.232Z,103520.09
2023-02-11T00:17:23.818Z,103519.25
2023-02-11T00:19:51.494Z,103521.97
2023-02-11T00:22:18.734Z,103514.97
2023-02-11T00:24:45.937Z,103522.78
2023-02-11T00:27:12.422Z,103520.09
2023-02-11T00:29:39.287Z,103524.66
2023-02-11T00:32:07.498Z,103526.56
2023-02-11T00:34:35.100Z,103530.91
2023-02-11T00:37:02.398Z,103524.66
2023-02-11T00:39:29.120Z,103523.59
2023-02-11T00:41:55.650Z,103525.50
2023-02-11T00:44:22.153Z,103527.09
2023-02-11T00:46:48.671Z,103524.97
2023-02-11T00:49:15.524Z,103535.47
2023-02-11T00:51:42.337Z,103521.47
2023-02-11T00:54:08.860Z,103526.03
2023-02-11T00:56:36.561Z,103530.63
2023-02-11T00:59:03.372Z,103522.53
2023-02-11T01:01:29.912Z,103517.13
2023-02-11T01:03:56.456Z,103510.41
2023-02-11T01:06:23.087Z,103508.50
2023-02-11T01:08:49.649Z,103497.69
2023-02-11T01:11:19.843Z,103494.47
2023-02-11T01:13:47.710Z,103497.47
2023-02-11T01:16:15.428Z,103499.66
2023-02-11T01:18:44.257Z,103504.78
2023-02-11T01:21:11.232Z,103490.50
2023-02-11T01:23:37.816Z,103475.66
2023-02-11T01:26:04.508Z,103474.59
2023-02-11T01:28:31.919Z,103471.59
2023-02-11T01:31:00.815Z,103475.13
2023-02-11T01:33:27.591Z,103477.59
2023-02-11T01:35:54.409Z,103495.13
2023-02-11T01:38:24.245Z,103506.72
2023-02-11T01:40:57.132Z,103515.88
2023-02-11T01:43:26.034Z,103516.44
2023-02-11T01:45:58.532Z,103521.03
2023-02-11T01:48:33.671Z,103520.75
2023-02-11T01:51:06.408Z,103505.66
2023-02-11T01:53:54.393Z,103504.84
2023-02-11T01:56:41.592Z,103505.09
2023-02-11T01:59:16.756Z,103514.28
2023-02-11T02:01:49.073Z,103515.09
2023-02-11T02:04:19.036Z,103518.91
2023-02-11T02:06:53.432Z,103512.97
2023-02-11T02:09:25.547Z,103517.56
2023-02-11T02:11:52.413Z,103519.47
2023-02-11T02:14:19.353Z,103515.94
2023-02-11T02:16:46.310Z,103509.75
2023-02-11T02:19:37.851Z,103508.16
2023-02-11T02:22:53.416Z,103506.81
2023-02-11T02:25:42.519Z,103508.41
2023-02-11T02:28:23.269Z,103499.00
2023-02-11T02:30:58.373Z,103495.75
2023-02-11T02:33:32.186Z,103498.72
2023-02-11T02:36:06.156Z,103505.78
2023-02-11T02:38:40.446Z,103489.34
2023-02-11T02:41:14.145Z,103482.06
2023-02-11T02:43:44.746Z,103485.56
2023-02-11T02:46:15.722Z,103476.66
2023-02-11T02:48:43.122Z,103476.66
2023-02-11T02:51:30.396Z,103482.59
2023-02-11T02:53:59.833Z,103483.94
2023-02-11T02:56:47.338Z,103485.84
2023-02-11T02:59:45.885Z,103492.03
2023-02-11T03:02:24.875Z,103487.19
2023-02-11T03:05:01.865Z,103482.59
2023-02-11T03:07:38.144Z,103474.75
2023-02-11T03:10:15.238Z,103477.75
2023-02-11T03:12:44.766Z,103478.28
2023-02-11T03:15:13.177Z,103480.97
2023-02-11T03:17:44.516Z,103469.88
2023-02-11T03:20:14.618Z,103462.09
2023-02-11T03:22:57.029Z,103456.44
2023-02-11T03:25:31.816Z,103458.03
2023-02-11T03:28:12.565Z,103447.53
2023-02-11T03:30:45.571Z,103447.53
2023-02-11T03:33:23.358Z,103446.72
2023-02-11T03:35:57.458Z,103444.31
2023-02-11T03:38:32.986Z,103452.94
2023-02-11T03:41:02.115Z,103452.16
2023-02-11T03:43:34.464Z,103450.56
2023-02-11T03:46:03.629Z,103435.72
2023-02-11T03:48:35.061Z,103425.19
2023-02-11T03:51:04.246Z,103424.09
2023-02-11T03:53:30.948Z,103428.97
2023-02-11T03:56:01.448Z,103444.38
2023-02-11T03:58:28.012Z,103448.97
2023-02-11T04:00:54.548Z,103446.00
2023-02-11T04:03:21.283Z,103446.78
2023-02-11T04:05:49.128Z,103458.97
2023-02-11T04:08:15.800Z,103458.16
2023-02-11T04:10:42.479Z,103456.25
2023-02-11T04:13:08.945Z,103455.97
2023-02-11T04:15:35.454Z,103453.78
2023-02-11T04:18:03.406Z,103455.13
2023-02-11T04:20:30.244Z,103458.88
2023-02-11T04:22:56.778Z,103463.47
2023-02-11T04:25:23.273Z,103467.81
2023-02-11T04:27:49.816Z,103462.91
2023-02-11T04:30:16.407Z,103471.53
2023-02-11T04:32:42.966Z,103468.81
2023-02-11T04:35:10.000Z,103469.66
2023-02-11T04:37:36.500Z,103473.69
2023-02-11T04:40:03.367Z,103471.78
2023-02-11T04:42:30.858Z,103471.78
2023-02-11T04:44:57.334Z,103470.97
2023-02-11T04:47:23.844Z,103469.59
2023-02-11T04:49:50.395Z,103477.44
2023-02-11T04:52:18.318Z,103476.34
2023-02-11T04:54:44.806Z,103474.16
2023-02-11T04:57:11.521Z,103471.75
2023-02-11T04:59:38.279Z,103474.16
2023-02-11T05:02:05.748Z,103474.97
2023-02-11T05:04:32.513Z,103462.28
2023-02-11T05:06:59.996Z,103477.41
2023-02-11T05:09:26.628Z,103468.19
2023-02-11T05:11:54.846Z,103486.81
2023-02-11T05:14:21.323Z,103476.81
2023-02-11T05:16:47.924Z,103470.34
2023-02-11T05:19:14.511Z,103473.06
2023-02-11T05:21:53.057Z,103468.97
2023-02-11T05:24:23.423Z,103469.25
2023-02-11T05:26:49.924Z,103477.06
2023-02-11T05:29:16.446Z,103475.44
2023-02-11T05:31:42.973Z,103476.81
2023-02-11T05:34:09.563Z,103481.63
2023-02-11T05:36:37.037Z,103477.84
2023-02-11T05:39:03.646Z,103467.03
2023-02-11T05:41:30.182Z,103465.69
2023-02-11T05:43:56.731Z,103463.78
2023-02-11T05:46:23.214Z,103463.78
2023-02-11T05:48:49.804Z,103458.38
2023-02-11T05:51:16.289Z,103462.69
2023-02-11T05:53:43.949Z,103464.03
2023-02-11T05:56:11.599Z,103471.59
2023-02-11T05:58:38.838Z,103469.41
2023-02-11T06:01:05.504Z,103470.22
2023-02-11T06:03:32.075Z,103478.59
2023-02-11T06:05:58.590Z,103468.59
2023-02-11T06:08:25.606Z,103477.22
2023-02-11T06:10:53.080Z,103479.91
2023-02-11T06:13:19.757Z,103490.44
2023-02-11T06:15:56.887Z,103485.84
2023-02-11T06:18:23.581Z,103488.53
2023-02-11T06:20:50.127Z,103489.88
2023-02-11T06:23:16.759Z,103485.00
2023-02-11T06:25:43.387Z,103487.94
2023-02-11T06:28:10.733Z,103488.75
2023-02-11T06:30:38.909Z,103483.88
2023-02-11T06:33:07.834Z,103478.19
2023-02-11T06:35:35.375Z,103484.41
2023-02-11T06:38:02.100Z,103481.13
2023-02-11T06:40:28.635Z,103484.34
2023-02-11T06:42:55.348Z,103478.09
2023-02-11T06:45:21.897Z,103469.97
2023-02-11T06:47:51.048Z,103467.81
2023-02-11T06:50:17.584Z,103467.81
2023-02-11T06:52:45.170Z,103477.22
2023-02-11T06:55:13.792Z,103472.66
2023-02-11T06:57:40.380Z,103479.66
2023-02-11T07:00:07.580Z,103482.34
2023-02-11T07:02:34.112Z,103481.56
2023-02-11T07:05:01.744Z,103484.25
2023-02-11T07:07:28.407Z,103492.63
2023-02-11T07:09:55.064Z,103494.22
2023-02-11T07:12:21.655Z,103497.44
2023-02-11T07:14:48.194Z,103502.03
2023-02-11T07:17:15.287Z,103499.03
2023-02-11T07:19:41.945Z,103499.03
2023-02-11T07:22:08.456Z,103500.66
2023-02-11T07:24:34.980Z,103506.88
2023-02-11T07:27:01.448Z,103506.59
2023-02-11T07:29:27.971Z,103511.69
2023-02-11T07:31:55.749Z,103520.63
2023-02-11T07:34:22.355Z,103518.47
2023-02-11T07:36:50.295Z,103518.94
2023-02-11T07:39:17.013Z,103524.59
2023-02-11T07:41:44.504Z,103523.53
2023-02-11T07:44:11.038Z,103532.13
2023-02-11T07:46:37.666Z,103531.56
2023-02-11T07:49:04.279Z,103537.78
2023-02-11T07:51:31.440Z,103533.69
2023-02-11T07:53:59.521Z,103529.91
2023-02-11T07:56:27.029Z,103523.41
2023-02-11T07:58:54.560Z,103525.56
2023-02-11T08:01:25.898Z,103522.56
2023-02-11T08:03:53.318Z,103527.97
2023-02-11T08:06:21.645Z,103531.19
2023-02-11T08:08:48.575Z,103530.91
2023-02-11T08:11:17.914Z,103536.84
2023-02-11T08:13:44.932Z,103534.13
2023-02-11T08:16:20.743Z,103536.03
2023-02-11T08:18:47.567Z,103538.16
2023-02-11T08:21:14.151Z,103534.34
2023-02-11T08:23:42.767Z,103531.94
2023-02-11T08:26:12.550Z,103528.16
2023-02-11T08:28:42.553Z,103541.06
2023-02-11T08:31:13.761Z,103534.88
2023-02-11T08:33:41.087Z,103540.00
2023-02-11T08:36:09.934Z,103548.63
2023-02-11T08:38:36.657Z,103542.94
2023-02-11T08:41:03.499Z,103551.88
2023-02-11T08:43:30.087Z,103552.06
2023-02-11T08:45:56.966Z,103554.50
2023-02-11T08:48:24.637Z,103553.13
2023-02-11T08:50:52.189Z,103546.31
2023-02-11T08:53:18.764Z,103551.47
2023-02-11T08:55:50.431Z,103554.69
2023-02-11T08:58:19.194Z,103557.13
2023-02-11T09:00:46.197Z,103566.28
2023-02-11T09:03:13.524Z,103564.06
2023-02-11T09:05:50.064Z,103565.41
2023-02-11T09:08:17.183Z,103566.72
2023-02-11T09:10:43.976Z,103576.16
2023-02-11T09:13:10.743Z,103576.69
2023-02-11T09:15:37.415Z,103582.03
2023-02-11T09:18:05.327Z,103583.34
2023-02-11T09:20:32.002Z,103584.66
2023-02-11T09:22:59.226Z,103587.63
2023-02-11T09:25:26.536Z,103590.84
2023-02-11T09:27:53.835Z,103598.38
2023-02-11T09:30:20.771Z,103585.34
2023-02-11T09:32:47.357Z,103587.50
2023-02-11T09:35:14.048Z,103593.13
2023-02-11T09:37:40.631Z,103592.03
2023-02-11T09:40:07.644Z,103594.97
2023-02-11T09:42:46.929Z,103594.69
2023-02-11T09:45:25.034Z,103602.72
2023-02-11T09:47:57.214Z,103604.56
2023-02-11T09:50:32.061Z,103599.66
2023-02-11T09:53:03.523Z,103601.81
2023-02-11T09:55:38.012Z,103610.44
2023-02-11T09:58:11.762Z,103608.75
2023-02-11T10:00:54.088Z,103620.91
2023-02-11T10:03:54.109Z,103616.84
2023-02-11T10:06:36.768Z,103632.50
2023-02-11T10:09:25.020Z,103636.22
2023-02-11T10:12:04.896Z,103630.53
2023-02-11T10:14:32.753Z,103632.66
2023-02-11T10:17:18.973Z,103642.88
2023-02-11T10:20:01.626Z,103635.00
2023-02-11T10:22:37.598Z,103646.56
2023-02-11T10:25:18.882Z,103642.69
2023-02-11T10:27:45.929Z,103645.81
2023-02-11T10:30:37.205Z,103654.41
2023-02-11T10:33:15.429Z,103661.88
2023-02-11T10:35:43.878Z,103666.72
2023-02-11T10:38:11.946Z,103659.59
2023-02-11T10:40:38.638Z,103660.94
2023-02-11T10:43:11.797Z,103666.91
2023-02-11T10:45:45.465Z,103669.91
2023-02-11T10:48:39.989Z,103667.97
2023-02-11T10:51:18.157Z,103666.34
2023-02-11T10:53:45.969Z,103667.97
2023-02-11T10:56:25.533Z,103664.97
2023-02-11T10:58:59.807Z,103661.16
2023-02-11T11:01:42.264Z,103663.31
2023-02-11T11:04:30.052Z,103668.91
2023-02-11T11:06:57.336Z,103665.84
2023-02-11T11:09:43.374Z,103679.03
2023-02-11T11:12:42.228Z,103672.94
2023-02-11T11:15:23.394Z,103684.19
2023-02-11T11:18:20.910Z,103682.00
2023-02-11T11:20:59.543Z,103688.16
2023-02-11T11:23:27.655Z,103687.03
2023-02-11T11:26:04.156Z,103693.28
2023-02-11T11:28:38.728Z,103693.78
2023-02-11T11:31:12.336Z,103699.44
2023-02-11T11:33:43.387Z,103699.63
2023-02-11T11:36:13.051Z,103703.59
2023-02-11T11:38:46.518Z,103705.13
2023-02-11T11:41:15.051Z,103709.13
2023-02-11T11:43:54.737Z,103704.22
2023-02-11T11:46:28.499Z,103703.09
2023-02-11T11:49:05.229Z,103699.88
2023-02-11T11:51:33.769Z,103696.06
2023-02-11T11:54:02.900Z,103683.81
2023-02-11T11:56:33.773Z,103678.38
2023-02-11T11:59:06.558Z,103681.38
2023-02-11T12:02:02.006Z,103679.47
2023-02-11T12:04:56.356Z,103685.41
2023-02-11T12:07:50.311Z,103676.69
2023-02-11T12:10:26.046Z,103676.69
2023-02-11T12:13:23.015Z,103661.69
2023-02-11T12:15:55.607Z,103657.56
2023-02-11T12:18:46.155Z,103664.81
2023-02-11T12:21:49.478Z,103665.50
2023-02-11T12:24:34.656Z,103666.50
2023-02-11T12:27:10.860Z,103674.59
2023-02-11T12:30:12.225Z,103673.69
2023-02-11T12:32:53.573Z,103664.41
2023-02-11T12:35:37.124Z,103673.88
2023-02-11T12:38:16.109Z,103663.50
2023-02-11T12:40:45.613Z,103675.88
2023-02-11T12:43:25.378Z,103666.81
2023-02-11T12:46:27.892Z,103674.69
2023-02-11T12:49:11.968Z,103676.47
2023-02-11T12:51:55.698Z,103676.66
2023-02-11T12:54:29.503Z,103670.25
2023-02-11T12:57:05.984Z,103675.97
2023-02-11T12:59:50.981Z,103667.63
2023-02-11T13:02:34.858Z,103673.06
2023-02-11T13:05:15.919Z,103667.31
2023-02-11T13:07:46.362Z,103668.63
2023-02-11T13:10:13.886Z,103664.19
2023-02-11T13:13:03.434Z,103675.47
2023-02-11T13:15:31.384Z,103673.75
2023-02-11T13:18:20.622Z,103677.75
2023-02-11T13:20:57.491Z,103667.91
2023-02-11T13:23:34.525Z,103669.69
2023-02-11T13:26:19.527Z,103670.41
2023-02-11T13:28:56.962Z,103666.56
2023-02-11T13:31:27.050Z,103664.13
2023-02-11T13:33:53.695Z,103656.81
2023-02-11T13:36:24.752Z,103657.59
2023-02-11T13:38:55.952Z,103658.41
2023-02-11T13:41:27.786Z,103649.75
2023-02-11T13:44:03.873Z,103649.53
2023-02-11T13:46:50.961Z,103656.22
2023-02-11T13:49:40.940Z,103661.03
2023-02-11T13:52:23.629Z,103660.13
2023-02-11T13:54:53.323Z,103660.34
2023-02-11T13:57:19.754Z,103654.69
2023-02-11T13:59:49.723Z,103652.09
2023-02-11T14:02:36.007Z,103658.94
2023-02-11T14:05:22.117Z,103663.09
2023-02-11T14:08:44.652Z,103667.19
2023-02-11T14:11:25.206Z,103671.66
2023-02-11T14:13:51.745Z,103669.22
2023-02-11T14:16:35.583Z,103668.72
2023-02-11T14:19:03.237Z,103668.44
2023-02-11T14:21:35.601Z,103663.28
2023-02-11T14:24:02.121Z,103666.50
2023-02-11T14:26:42.450Z,103671.31
2023-02-11T14:29:19.904Z,103668.31
2023-02-11T14:32:05.656Z,103671.81
2023-02-11T14:34:54.193Z,103664.47
2023-02-11T14:37:50.313Z,103666.59
2023-02-11T14:40:30.772Z,103675.56
2023-02-11T14:43:18.554Z,103685.00
2023-02-11T14:46:42.128Z,103667.59
2023-02-11T14:49:47.642Z,103681.69
2023-02-11T14:52:27.513Z,103677.34
2023-02-11T14:55:06.583Z,103678.47
2023-02-11T14:57:33.529Z,103678.47
2023-02-11T15:00:04.341Z,103678.47
2023-02-11T15:02:37.008Z,103677.13
2023-02-11T15:05:23.687Z,103682.09
2023-02-11T15:07:54.691Z,103682.09
2023-02-11T15:10:29.931Z,103681.28
2023-02-11T15:12:57.875Z,103678.38
2023-02-11T15:15:26.140Z,103682.19
2023-02-11T15:17:53.453Z,103682.00
2023-02-11T15:20:24.975Z,103688.34
2023-02-11T15:22:58.907Z,103691.47
2023-02-11T15:25:27.871Z,103698.91
2023-02-11T15:27:57.085Z,103697.09
2023-02-11T15:30:24.854Z,103695.00
2023-02-11T15:32:58.803Z,103695.59
2023-02-11T15:35:28.668Z,103691.88
2023-02-11T15:37:57.530Z,103694.09
2023-02-11T15:40:27.985Z,103697.09
2023-02-11T15:42:58.669Z,103695.81
2023-02-11T15:45:30.785Z,103700.22
2023-02-11T15:48:11.788Z,103707.06
2023-02-11T15:50:41.111Z,103709.28
2023-02-11T15:53:25.678Z,103710.69
2023-02-11T15:56:00.983Z,103711.25
2023-02-11T15:58:27.601Z,103709.75
2023-02-11T16:00:59.738Z,103711.66
2023-02-11T16:03:32.608Z,103707.63
2023-02-11T16:06:23.985Z,103718.78
2023-02-11T16:08:58.831Z,103716.66
2023-02-11T16:11:32.521Z,103720.28
2023-02-11T16:14:01.849Z,103718.47
2023-02-11T16:16:31.961Z,103721.47
2023-02-11T16:21:45.526Z,103714.03
2023-02-11T16:24:21.760Z,103717.31
2023-02-11T16:26:53.293Z,103726.84
2023-02-11T16:29:25.214Z,103725.53
2023-02-11T16:31:53.576Z,103732.06
2023-02-11T16:34:22.925Z,103736.16
2023-02-11T16:36:51.710Z,103731.34
2023-02-11T16:39:22.507Z,103733.25
2023-02-11T16:41:51.862Z,103736.25
2023-02-11T16:44:18.770Z,103739.56
2023-02-11T16:46:45.668Z,103740.66
2023-02-11T16:49:20.031Z,103745.28
2023-02-11T16:51:50.223Z,103745.06
2023-02-11T16:54:18.267Z,103746.16
2023-02-11T16:56:45.624Z,103748.09
2023-02-11T16:59:13.688Z,103751.88
2023-02-11T17:01:42.529Z,103761.13
2023-02-11T17:04:30.907Z,103766.03
2023-02-11T17:06:58.679Z,103772.88
2023-02-11T17:09:30.464Z,103780.50
2023-02-11T17:11:58.755Z,103775.06
2023-02-11T17:14:25.506Z,103780.50
2023-02-11T17:16:52.347Z,103779.16
2023-02-11T17:19:22.185Z,103784.38
2023-02-11T17:21:51.441Z,103783.84
2023-02-11T17:24:19.617Z,103783.03
2023-02-11T17:26:47.317Z,103786.03
2023-02-11T17:29:17.437Z,103784.44
2023-02-11T17:31:44.467Z,103788.22
2023-02-11T17:34:11.671Z,103781.50
2023-02-11T17:36:38.415Z,103787.50
2023-02-11T17:39:08.153Z,103789.41
2023-02-11T17:41:36.221Z,103793.50
2023-02-11T17:44:03.118Z,103790.56
2023-02-11T17:46:29.696Z,103797.84
2023-02-11T17:48:58.840Z,103793.25
2023-02-11T17:51:29.304Z,103790.31
2023-02-11T17:57:02.625Z,103801.75
2023-02-11T17:59:35.239Z,103802.03
2023-02-11T18:02:03.868Z,103791.78
2023-02-11T18:04:31.405Z,103801.00
2023-02-11T18:06:59.017Z,103804.81
2023-02-11T18:09:26.605Z,103805.09
2023-02-11T18:11:53.472Z,103806.13
2023-02-11T18:14:21.845Z,103809.91
2023-02-11T18:16:51.239Z,103812.94
2023-02-11T18:19:18.577Z,103814.34
2023-02-11T18:21:48.740Z,103812.69
2023-02-11T18:24:16.470Z,103812.97
2023-02-11T18:26:43.435Z,103813.28
2023-02-11T18:29:10.164Z,103817.38
2023-02-11T18:31:37.825Z,103819.28
2023-02-11T18:34:07.876Z,103824.16
2023-02-11T18:36:34.880Z,103829.91
2023-02-11T18:39:01.433Z,103829.09
2023-02-11T18:41:28.166Z,103830.19
2023-02-11T18:44:00.472Z,103829.38
2023-02-11T18:46:27.160Z,103835.59
2023-02-11T18:48:56.069Z,103839.94
2023-02-11T18:51:23.174Z,103845.34
2023-02-11T18:53:49.888Z,103834.00
2023-02-11T18:56:20.744Z,103837.78
2023-02-11T18:58:47.841Z,103839.41
2023-02-11T19:01:19.615Z,103838.91
2023-02-11T19:03:46.759Z,103838.91
2023-02-11T19:06:16.715Z,103841.88
2023-02-11T19:08:44.967Z,103846.19
2023-02-11T19:11:12.666Z,103848.09
2023-02-11T19:13:39.285Z,103843.00
2023-02-11T19:16:11.172Z,103846.78
2023-02-11T19:18:38.787Z,103844.34
2023-02-11T19:21:09.436Z,103843.03
2023-02-11T19:23:36.767Z,103848.75
2023-02-11T19:26:04.678Z,103849.56
2023-02-11T19:28:32.059Z,103856.34
2023-02-11T19:31:04.616Z,103858.53
2023-02-11T19:33:31.192Z,103863.66
2023-02-11T19:36:03.404Z,103869.06
2023-02-11T19:38:29.937Z,103865.28
2023-02-11T19:40:57.101Z,103867.47
2023-02-11T19:43:24.010Z,103872.63
2023-02-11T19:45:51.563Z,103879.91
2023-02-11T19:48:18.263Z,103879.63
2023-02-11T19:50:45.875Z,103872.09
2023-02-11T19:53:12.419Z,103872.38
2023-02-11T19:55:38.943Z,103875.06
2023-02-11T19:58:05.550Z,103881.59
2023-02-11T20:00:32.039Z,103873.47
2023-02-11T20:02:58.717Z,103883.19
2023-02-11T20:05:25.271Z,103884.53
2023-02-11T20:07:52.839Z,103876.41
2023-02-11T20:10:19.415Z,103888.03
2023-02-11T20:12:45.935Z,103897.00
2023-02-11T20:15:12.475Z,103900.50
2023-02-11T20:17:38.984Z,103891.84
2023-02-11T20:20:07.089Z,103889.94
2023-02-11T20:22:33.827Z,103899.19
2023-02-11T20:25:00.415Z,103903.50
2023-02-11T20:27:29.413Z,103902.69
2023-02-11T20:29:55.921Z,103903.50
2023-02-11T20:32:22.524Z,103904.28
2023-02-11T20:34:49.145Z,103914.31
2023-02-11T20:37:15.825Z,103912.72
2023-02-11T20:39:44.789Z,103923.56
2023-02-11T20:42:13.176Z,103913.81
2023-02-11T20:44:39.711Z,103921.38
2023-02-11T20:47:06.562Z,103925.97
2023-02-11T20:49:33.132Z,103922.75
2023-02-11T20:51:59.683Z,103926.28
2023-02-11T20:54:27.250Z,103922.75
2023-02-11T20:56:54.319Z,103922.25
2023-02-11T20:59:21.648Z,103924.13
2023-02-11T21:01:50.872Z,103937.97
2023-02-11T21:04:20.415Z,103937.38
2023-02-11T21:06:49.495Z,103951.47
2023-02-11T21:09:19.806Z,103946.31
2023-02-11T21:11:48.504Z,103944.97
2023-02-11T21:14:15.396Z,103943.38
2023-02-11T21:16:42.322Z,103943.59
2023-02-11T21:19:08.969Z,103950.94
2023-02-11T21:21:37.698Z,103948.22
2023-02-11T21:24:05.998Z,103949.31
2023-02-11T21:26:32.964Z,103953.13
2023-02-11T21:28:59.599Z,103949.59
2023-02-11T21:31:28.806Z,103964.22
2023-02-11T21:33:56.679Z,103966.13
2023-02-11T21:36:23.814Z,103967.22
2023-02-11T21:38:50.672Z,103968.03
2023-02-11T21:41:18.587Z,103968.03
2023-02-11T21:43:45.400Z,103968.03
2023-02-11T21:46:14.566Z,103966.44
2023-02-11T21:48:41.587Z,103972.66
2023-02-11T21:51:11.437Z,103969.94
2023-02-11T21:53:38.705Z,103975.63
2023-02-11T21:56:07.396Z,103976.44
2023-02-11T21:58:34.005Z,103973.72
2023-02-11T22:01:00.974Z,103967.78
2023-02-11T22:03:28.014Z,103977.81
2023-02-11T22:05:55.055Z,103971.59
2023-02-11T22:08:22.866Z,103978.63
2023-02-11T22:10:49.432Z,103982.16
2023-02-11T22:13:17.121Z,103987.28
2023-02-11T22:15:43.716Z,103986.47
2023-02-11T22:18:10.214Z,103989.19
2023-02-11T22:20:36.819Z,103991.88
2023-02-11T22:23:03.380Z,103992.16
2023-02-11T22:25:30.008Z,103991.09
2023-02-11T22:27:56.644Z,103994.88
2023-02-11T22:30:23.190Z,103981.91
2023-02-11T22:32:49.802Z,103986.53
2023-02-11T22:35:16.411Z,103987.31
2023-02-11T22:37:42.943Z,103988.66
2023-02-11T22:40:09.946Z,103988.66
2023-02-11T22:42:36.514Z,103994.34
2023-02-11T22:45:04.158Z,103994.66
2023-02-11T22:47:30.702Z,103985.72
2023-02-11T22:49:57.221Z,103991.94
2023-02-11T22:52:23.812Z,103990.84
2023-02-11T22:54:51.719Z,103991.13
2023-02-11T22:57:18.208Z,103991.13
2023-02-11T22:59:44.833Z,103995.72
2023-02-11T23:02:11.488Z,103992.47
2023-02-11T23:04:38.202Z,103996.03
2023-02-11T23:07:04.749Z,103998.19
2023-02-11T23:09:31.372Z,103996.28
2023-02-11T23:11:57.990Z,104000.06
2023-02-11T23:14:24.860Z,104000.06
2023-02-11T23:16:51.573Z,104001.19
2023-02-11T23:19:19.309Z,103998.75
2023-02-11T23:21:45.948Z,104000.91
2023-02-11T23:24:14.343Z,104007.69
2023-02-11T23:26:43.812Z,103999.28
2023-02-11T23:29:12.237Z,103999.56
2023-02-11T23:31:41.031Z,104001.44
2023-02-11T23:34:08.291Z,104007.44
2023-02-11T23:36:35.089Z,103998.78
2023-02-11T23:39:01.635Z,103998.00
2023-02-11T23:41:28.235Z,104003.94
2023-02-11T23:43:56.763Z,104003.41
2023-02-11T23:46:24.979Z,104000.41
2023-02-11T23:48:52.274Z,103995.28
2023-02-11T23:51:19.651Z,103996.09
2023-02-11T23:53:46.397Z,104000.69
2023-02-11T23:56:17.191Z,104002.03
2023-02-11T23:58:44.837Z,103995.81
